Time;durP1;ratioP1;P1;durP2;ratioP2;P2;SDS_P1;SDS_P2;PMS_P1;PMS_P2;Temp;Humidity;BMP_temperature;BMP_pressure;BME280_temperature;BME280_humidity;BME280_pressure;Samples;Min_cycle;Max_cycle;Signal;HPM_P1;HPM_P2
2021/01/31 00:02:10;;;;;;;22.10;10.87;;;;;;;1.22;100.00;94455.47;5018144;28;20458;-72
2021/01/31 00:04:36;;;;;;;24.37;11.57;;;;;;;1.14;100.00;94457.25;5018914;28;20215;-72
2021/01/31 00:07:04;;;;;;;22.07;11.20;;;;;;;1.24;100.00;94464.69;5017254;28;20260;-71
2021/01/31 00:09:30;;;;;;;19.13;10.33;;;;;;;1.19;100.00;94469.56;5017341;28;20818;-71
2021/01/31 00:11:56;;;;;;;19.50;10.37;;;;;;;1.08;100.00;94460.50;5018451;28;20212;-72
2021/01/31 00:14:21;;;;;;;21.03;10.83;;;;;;;1.22;100.00;94466.66;5017947;28;20210;-71
2021/01/31 00:16:47;;;;;;;21.10;10.57;;;;;;;1.25;100.00;94468.13;5017522;28;20704;-72
2021/01/31 00:19:13;;;;;;;20.07;10.53;;;;;;;1.28;100.00;94462.59;5018365;28;20714;-72
2021/01/31 00:21:39;;;;;;;18.57;10.17;;;;;;;1.22;100.00;94466.66;5017733;28;20638;-72
2021/01/31 00:24:07;;;;;;;19.73;10.20;;;;;;;1.27;100.00;94472.16;5018034;28;20571;-71
2021/01/31 00:26:33;;;;;;;18.10;9.23;;;;;;;1.15;100.00;94471.84;5018206;28;20201;-71
2021/01/31 00:28:59;;;;;;;18.73;9.70;;;;;;;1.21;100.00;94475.41;5017693;28;20291;-71
2021/01/31 00:31:25;;;;;;;21.10;10.50;;;;;;;1.19;100.00;94470.56;5017817;28;20210;-71
2021/01/31 00:33:51;;;;;;;17.97;9.53;;;;;;;1.09;100.00;94475.91;5017814;28;20294;-71
2021/01/31 00:36:17;;;;;;;19.77;11.13;;;;;;;1.08;100.00;94478.66;5017622;28;20222;-71
2021/01/31 00:38:43;;;;;;;19.30;10.53;;;;;;;0.93;100.00;94481.09;5017290;28;20584;-71
2021/01/31 00:41:09;;;;;;;20.93;10.30;;;;;;;0.99;100.00;94474.44;5017801;28;20564;-72
2021/01/31 00:43:35;;;;;;;19.37;10.47;;;;;;;1.08;100.00;94470.88;5017887;28;20201;-71
2021/01/31 00:46:01;;;;;;;16.80;8.53;;;;;;;1.04;100.00;94472.19;5016380;28;20264;-72
2021/01/31 00:48:27;;;;;;;16.07;7.93;;;;;;;0.98;100.00;94462.44;5017774;28;20251;-71
2021/01/31 00:50:54;;;;;;;18.97;9.83;;;;;;;0.90;100.00;94470.22;5017561;28;20225;-71
2021/01/31 00:53:20;;;;;;;21.87;10.97;;;;;;;0.98;100.00;94481.44;5017033;28;20599;-71
2021/01/31 00:55:46;;;;;;;21.70;10.97;;;;;;;0.93;100.00;94477.69;5016962;28;20216;-71
2021/01/31 00:58:12;;;;;;;22.57;10.77;;;;;;;0.89;100.00;94485.00;5017540;28;20239;-71
2021/01/31 01:00:40;;;;;;;18.97;10.30;;;;;;;1.01;100.00;94478.50;5017160;28;21087;-72
2021/01/31 01:03:07;;;;;;;18.87;9.27;;;;;;;0.84;100.00;94486.41;5017210;28;20203;-72
2021/01/31 01:05:34;;;;;;;20.90;11.00;;;;;;;0.92;100.00;94486.44;5016694;28;20266;-71
2021/01/31 01:08:00;;;;;;;20.03;10.10;;;;;;;0.93;100.00;94493.22;5017254;28;20267;-72
2021/01/31 01:10:29;;;;;;;14.07;7.50;;;;;;;0.76;100.00;94491.59;5016882;28;20232;-71
2021/01/31 01:12:55;;;;;;;20.70;10.17;;;;;;;0.92;100.00;94499.41;5016439;28;21135;-72
2021/01/31 01:15:26;;;;;;;19.43;9.90;;;;;;;0.96;100.00;94504.09;5016967;28;20201;-71
2021/01/31 01:17:52;;;;;;;19.13;10.17;;;;;;;0.82;100.00;94498.75;5017023;28;20232;-72
2021/01/31 01:20:19;;;;;;;17.90;9.47;;;;;;;0.74;100.00;94504.72;5015974;28;20208;-71
2021/01/31 01:22:45;;;;;;;24.27;11.73;;;;;;;0.92;100.00;94504.59;5016688;28;20217;-71
2021/01/31 01:25:13;;;;;;;20.60;10.73;;;;;;;0.92;100.00;94504.59;5016553;28;20219;-71
2021/01/31 01:27:39;;;;;;;22.47;11.73;;;;;;;0.79;100.00;94502.47;5016858;28;20236;-71
2021/01/31 01:30:07;;;;;;;21.63;10.97;;;;;;;0.88;100.00;94503.28;5017018;28;20229;-71
2021/01/31 01:32:34;;;;;;;23.20;11.73;;;;;;;0.92;100.00;94505.41;5017365;28;20215;-71
2021/01/31 01:35:00;;;;;;;23.77;10.70;;;;;;;0.88;100.00;94508.47;5016493;28;20572;-72
2021/01/31 01:37:26;;;;;;;23.00;11.33;;;;;;;0.95;100.00;94499.88;5016375;28;20252;-71
2021/01/31 01:39:52;;;;;;;20.30;10.07;;;;;;;0.81;100.00;94499.72;5017810;28;20234;-71
2021/01/31 01:42:18;;;;;;;25.57;12.33;;;;;;;0.88;100.00;94491.13;5016577;28;20207;-72
2021/01/31 01:44:44;;;;;;;22.53;10.97;;;;;;;0.92;100.00;94496.81;5016170;28;20587;-72
2021/01/31 01:47:16;;;;;;;21.60;10.60;;;;;;;0.76;100.00;94502.81;5016564;28;20207;-71
2021/01/31 01:49:45;;;;;;;24.80;12.63;;;;;;;0.90;100.00;94506.53;5016799;28;21035;-71
2021/01/31 01:52:20;;;;;;;25.27;12.40;;;;;;;0.92;100.00;94502.81;5016523;28;20198;-72
2021/01/31 01:54:52;;;;;;;23.30;10.63;;;;;;;0.77;100.00;94501.00;5016576;28;20206;-71
2021/01/31 01:57:22;;;;;;;25.07;12.33;;;;;;;0.89;100.00;94504.91;5015688;28;20222;-71
2021/01/31 01:59:51;;;;;;;26.27;13.07;;;;;;;0.94;100.00;94511.25;5016549;28;20202;-71
2021/01/31 02:02:19;;;;;;;24.37;12.63;;;;;;;0.90;100.00;94514.31;5016807;28;20210;-71
2021/01/31 02:04:46;;;;;;;28.77;13.27;;;;;;;0.81;100.00;94513.47;5016377;28;20214;-71
2021/01/31 02:07:12;;;;;;;22.67;11.77;;;;;;;0.82;100.00;94519.50;5015505;28;20713;-72
2021/01/31 02:09:38;;;;;;;22.83;11.50;;;;;;;0.87;100.00;94525.81;5016705;28;20230;-71
2021/01/31 02:12:06;;;;;;;27.17;12.93;;;;;;;0.93;100.00;94519.16;5016606;28;20211;-71
2021/01/31 02:14:36;;;;;;;25.47;12.43;;;;;;;0.94;100.00;94523.38;5015670;28;20209;-71
2021/01/31 02:17:07;;;;;;;26.63;13.53;;;;;;;0.82;100.00;94514.31;5014984;28;20573;-72
2021/01/31 02:20:08;;;;;;;26.73;13.00;;;;;;;0.75;100.00;94521.09;5016137;28;20206;-72
2021/01/31 02:23:08;;;;;;;25.10;12.53;;;;;;;0.76;100.00;94517.53;5015359;28;20239;-72
2021/01/31 02:26:09;;;;;;;25.23;11.83;;;;;;;0.78;100.00;94520.78;5011461;28;20210;-71
2021/01/31 02:28:59;;;;;;;25.23;11.97;;;;;;;0.85;100.00;94521.75;5013578;28;20229;-72
2021/01/31 02:31:48;;;;;;;29.13;12.90;;;;;;;0.95;100.00;94519.81;5015900;28;20709;-72
2021/01/31 02:34:22;;;;;;;26.27;11.70;;;;;;;0.91;100.00;94527.09;5019088;28;20205;-71
2021/01/31 02:37:02;;;;;;;24.53;11.77;;;;;;;0.81;100.00;94526.44;5018546;28;20232;-72
2021/01/31 02:39:39;;;;;;;24.27;11.60;;;;;;;0.86;100.00;94534.53;5019343;28;20719;-71
2021/01/31 02:42:17;;;;;;;28.00;13.40;;;;;;;0.99;100.00;94534.09;5019216;28;20215;-71
2021/01/31 02:44:53;;;;;;;24.07;11.53;;;;;;;0.84;100.00;94533.09;5018834;28;20205;-72
2021/01/31 02:47:23;;;;;;;23.17;12.13;;;;;;;0.90;100.00;94542.81;5018562;28;20257;-71
2021/01/31 02:49:56;;;;;;;25.47;12.10;;;;;;;0.95;100.00;94545.75;5019904;28;20229;-71
2021/01/31 02:52:27;;;;;;;26.10;12.47;;;;;;;1.01;100.00;94550.31;5019043;28;20925;-71
2021/01/31 02:54:59;;;;;;;21.90;11.43;;;;;;;0.93;100.00;94558.03;5018265;28;20209;-71
2021/01/31 02:57:34;;;;;;;24.03;12.33;;;;;;;0.99;100.00;94562.59;5018730;28;20356;-71
2021/01/31 03:00:08;;;;;;;26.50;12.50;;;;;;;0.98;100.00;94560.97;5019493;28;20205;-72
2021/01/31 03:02:39;;;;;;;26.03;12.73;;;;;;;0.90;100.00;94555.78;5019085;28;20201;-71
2021/01/31 03:05:11;;;;;;;27.47;12.57;;;;;;;0.94;100.00;94557.09;5018030;28;20209;-71
2021/01/31 03:07:56;;;;;;;25.27;12.43;;;;;;;0.77;100.00;94565.81;5018744;28;20236;-71
2021/01/31 03:10:26;;;;;;;25.40;11.70;;;;;;;0.70;100.00;94563.03;5018443;28;20218;-72
2021/01/31 03:12:56;;;;;;;25.03;12.47;;;;;;;0.82;100.00;94563.56;5018869;28;20228;-71
2021/01/31 03:15:26;;;;;;;22.73;11.90;;;;;;;0.85;100.00;94561.47;5018137;28;20219;-70
2021/01/31 03:17:59;;;;;;;24.33;12.37;;;;;;;0.99;100.00;94563.41;5018998;28;20222;-70
2021/01/31 03:20:29;;;;;;;26.43;11.73;;;;;;;0.97;100.00;94559.34;5018659;28;20669;-70
2021/01/31 03:23:01;;;;;;;25.33;12.10;;;;;;;0.80;100.00;94563.72;5019669;28;20208;-70
2021/01/31 03:25:34;;;;;;;20.40;10.33;;;;;;;0.73;100.00;94562.72;5018416;28;20208;-70
2021/01/31 03:28:00;;;;;;;21.37;10.07;;;;;;;0.69;100.00;94563.22;5016813;28;20228;-70
2021/01/31 03:30:26;;;;;;;23.37;11.67;;;;;;;0.85;100.00;94564.06;5018876;28;20249;-70
2021/01/31 03:32:58;;;;;;;24.93;10.43;;;;;;;0.81;100.00;94561.94;5019381;28;20396;-70
2021/01/31 03:35:29;;;;;;;22.83;12.00;;;;;;;0.87;100.00;94569.88;5017683;28;20209;-70
2021/01/31 03:38:01;;;;;;;20.73;10.63;;;;;;;0.92;100.00;94572.81;5018956;28;20232;-70
2021/01/31 03:40:28;;;;;;;21.27;11.30;;;;;;;0.96;100.00;94573.31;5019413;28;20202;-70
2021/01/31 03:42:54;;;;;;;23.17;11.07;;;;;;;0.97;100.00;94578.31;5017421;28;20571;-70
2021/01/31 03:45:26;;;;;;;22.63;12.07;;;;;;;0.93;100.00;94577.03;5017691;28;20208;-70
2021/01/31 03:48:00;;;;;;;21.20;10.77;;;;;;;0.88;100.00;94588.81;5018426;28;20225;-70
2021/01/31 03:50:27;;;;;;;21.07;10.97;;;;;;;0.84;100.00;94593.53;5018160;28;20229;-70
2021/01/31 03:52:53;;;;;;;21.77;10.50;;;;;;;0.84;100.00;94596.13;5018988;28;20635;-70
2021/01/31 03:55:19;;;;;;;20.40;10.10;;;;;;;0.89;100.00;94595.63;5018212;28;20560;-70
2021/01/31 03:57:49;;;;;;;20.20;10.37;;;;;;;0.86;100.00;94598.56;5018645;28;20255;-70
2021/01/31 04:00:19;;;;;;;20.57;10.70;;;;;;;0.94;100.00;94601.16;5018666;28;20208;-70
2021/01/31 04:02:51;;;;;;;20.03;10.13;;;;;;;0.91;100.00;94602.28;5019074;28;20208;-70
2021/01/31 04:05:19;;;;;;;21.60;11.03;;;;;;;0.86;100.00;94603.75;5017564;28;20198;-70
2021/01/31 04:07:51;;;;;;;20.47;11.17;;;;;;;0.91;100.00;94612.66;5018400;28;20225;-70
2021/01/31 04:10:17;;;;;;;19.63;10.53;;;;;;;0.76;100.00;94608.25;5017949;28;20226;-70
2021/01/31 04:12:46;;;;;;;20.80;9.87;;;;;;;0.76;100.00;94613.44;5018628;28;20213;-70
2021/01/31 04:15:19;;;;;;;22.43;11.23;;;;;;;0.88;100.00;94612.97;5017611;28;20257;-70
2021/01/31 04:17:49;;;;;;;21.87;11.40;;;;;;;0.91;100.00;94617.84;5018262;28;20658;-71
2021/01/31 04:20:15;;;;;;;23.63;11.83;;;;;;;0.93;100.00;94615.09;5018410;28;20197;-70
2021/01/31 04:22:41;;;;;;;22.83;11.63;;;;;;;0.87;100.00;94607.97;5017967;28;20225;-71
2021/01/31 04:25:09;;;;;;;23.30;11.60;;;;;;;0.80;100.00;94612.13;5017756;28;20210;-70
2021/01/31 04:27:36;;;;;;;22.57;11.03;;;;;;;0.83;100.00;94604.06;5018110;28;20224;-70
2021/01/31 04:30:02;;;;;;;22.03;11.43;;;;;;;0.75;100.00;94601.44;5018169;28;20235;-70
2021/01/31 04:32:27;;;;;;;23.03;11.47;;;;;;;0.76;100.00;94593.53;5017729;28;20621;-70
2021/01/31 04:34:53;;;;;;;25.60;12.43;;;;;;;0.86;100.00;94601.16;5017679;28;20208;-70
2021/01/31 04:37:23;;;;;;;26.83;12.53;;;;;;;0.74;100.00;94611.00;5017243;28;20229;-70
2021/01/31 04:39:49;;;;;;;23.47;12.17;;;;;;;0.91;100.00;94617.03;5017542;28;20572;-70
2021/01/31 04:42:17;;;;;;;24.10;12.33;;;;;;;0.97;100.00;94622.41;5017817;28;20208;-70
2021/01/31 04:44:43;;;;;;;25.00;12.40;;;;;;;1.08;100.00;94623.88;5017288;28;20216;-70
2021/01/31 04:47:16;;;;;;;24.00;12.37;;;;;;;1.18;100.00;94621.97;5017117;28;20695;-70
2021/01/31 04:49:55;;;;;;;22.57;11.03;;;;;;;1.04;100.00;94631.16;5017718;28;20247;-70
2021/01/31 04:52:32;;;;;;;23.57;11.67;;;;;;;0.98;100.00;94633.56;5018017;28;20215;-70
2021/01/31 04:55:14;;;;;;;24.33;11.87;;;;;;;1.07;100.00;94637.81;5017474;28;21131;-70
2021/01/31 04:57:46;;;;;;;19.90;10.63;;;;;;;1.08;100.00;94639.44;5017474;28;20294;-70
2021/01/31 05:00:18;;;;;;;24.07;12.03;;;;;;;1.06;100.00;94631.00;5017354;28;20212;-70
2021/01/31 05:02:48;;;;;;;22.33;11.97;;;;;;;1.13;100.00;94629.41;5017746;28;20212;-70
2021/01/31 05:05:19;;;;;;;21.40;11.33;;;;;;;1.12;100.00;94640.75;5016878;28;20200;-70
2021/01/31 05:07:50;;;;;;;25.30;12.30;;;;;;;1.20;100.00;94639.78;5017341;28;20299;-71
2021/01/31 05:10:16;;;;;;;20.00;10.27;;;;;;;1.05;100.00;94650.13;5018059;28;20229;-70
2021/01/31 05:12:58;;;;;;;22.73;10.87;;;;;;;0.96;100.00;94651.88;5017549;28;20605;-70
2021/01/31 05:15:27;;;;;;;20.13;10.93;;;;;;;1.05;100.00;94653.53;5017547;28;20205;-70
2021/01/31 05:17:56;;;;;;;22.30;11.30;;;;;;;1.09;100.00;94654.03;5017955;28;20235;-70
2021/01/31 05:20:27;;;;;;;20.87;11.30;;;;;;;1.15;100.00;94656.00;5018172;28;20202;-70
2021/01/31 05:22:55;;;;;;;21.83;10.37;;;;;;;1.07;100.00;94653.38;5018280;28;20196;-70
2021/01/31 05:25:24;;;;;;;22.43;10.80;;;;;;;1.10;100.00;94659.06;5017763;28;20197;-70
2021/01/31 05:27:56;;;;;;;20.90;10.87;;;;;;;1.11;100.00;94655.50;5017578;28;20239;-70
2021/01/31 05:30:23;;;;;;;23.20;11.73;;;;;;;1.16;100.00;94658.44;5018581;28;20231;-70
2021/01/31 05:33:05;;;;;;;21.40;11.20;;;;;;;1.09;100.00;94657.44;5017838;28;20212;-70
2021/01/31 05:35:34;;;;;;;22.03;11.73;;;;;;;1.04;100.00;94664.06;5017024;28;20207;-70
2021/01/31 05:38:00;;;;;;;22.90;11.33;;;;;;;0.99;100.00;94658.53;5017293;28;20344;-70
2021/01/31 05:40:29;;;;;;;22.13;11.83;;;;;;;1.00;100.00;94658.38;5017952;28;20210;-70
2021/01/31 05:42:57;;;;;;;23.40;12.00;;;;;;;1.04;100.00;94653.69;5017240;28;20209;-70
2021/01/31 05:45:39;;;;;;;25.70;12.93;;;;;;;1.13;100.00;94642.38;5017479;28;20198;-70
2021/01/31 05:48:23;;;;;;;26.27;12.30;;;;;;;1.18;100.00;94655.66;5017457;28;20225;-70
2021/01/31 05:50:51;;;;;;;26.60;13.07;;;;;;;1.21;100.00;94656.19;5017736;28;20325;-71
2021/01/31 05:53:31;;;;;;;21.60;11.33;;;;;;;1.23;100.00;94662.81;5017744;28;20885;-70
2021/01/31 05:56:22;;;;;;;23.57;11.87;;;;;;;1.22;100.00;94653.41;5017392;28;20216;-71
2021/01/31 05:58:50;;;;;;;24.87;11.10;;;;;;;1.20;100.00;94654.53;5017304;28;20724;-70
2021/01/31 06:01:16;;;;;;;21.27;11.27;;;;;;;1.18;100.00;94658.28;5017664;28;20223;-71
2021/01/31 06:03:42;;;;;;;19.67;10.73;;;;;;;1.14;100.00;94665.53;5017591;28;20219;-70
2021/01/31 06:06:11;;;;;;;21.77;10.73;;;;;;;1.16;100.00;94660.19;5017011;28;20202;-70
2021/01/31 06:08:40;;;;;;;23.07;11.53;;;;;;;1.13;100.00;94661.31;5021235;28;20233;-70
2021/01/31 06:11:09;;;;;;;23.60;11.43;;;;;;;1.11;100.00;94654.66;5021362;28;20224;-70
2021/01/31 06:13:37;;;;;;;25.60;11.77;;;;;;;1.04;100.00;94651.91;5021384;28;20212;-70
2021/01/31 06:16:06;;;;;;;23.93;12.20;;;;;;;1.04;100.00;94664.88;5020815;28;20213;-70
2021/01/31 06:18:35;;;;;;;23.10;11.20;;;;;;;1.00;100.00;94667.94;5021581;28;20231;-71
2021/01/31 06:21:10;;;;;;;24.17;11.90;;;;;;;0.96;100.00;94667.44;5021492;28;20207;-70
2021/01/31 06:23:40;;;;;;;24.00;11.60;;;;;;;0.98;100.00;94670.69;5021383;28;20203;-71
2021/01/31 06:26:06;;;;;;;24.43;11.83;;;;;;;0.93;100.00;94672.94;5020704;28;20202;-69
2021/01/31 06:28:45;;;;;;;23.20;11.73;;;;;;;0.89;100.00;94674.25;5020756;28;21043;-69
2021/01/31 06:31:20;;;;;;;24.23;11.67;;;;;;;0.86;100.00;94686.69;5021702;28;20303;-70
2021/01/31 06:33:47;;;;;;;25.30;11.67;;;;;;;0.95;100.00;94680.56;5021528;28;20206;-70
2021/01/31 06:36:29;;;;;;;23.83;12.53;;;;;;;0.92;100.00;94678.31;5020480;28;20202;-70
2021/01/31 06:39:08;;;;;;;26.97;13.13;;;;;;;0.91;100.00;94684.44;5021432;28;20231;-70
2021/01/31 06:41:55;;;;;;;26.17;12.20;;;;;;;0.98;100.00;94683.66;5020902;28;20766;-70
2021/01/31 06:44:31;;;;;;;27.77;12.47;;;;;;;0.97;100.00;94686.38;5020786;28;20212;-70
2021/01/31 06:47:11;;;;;;;27.53;14.00;;;;;;;1.00;100.00;94688.69;5020687;28;20220;-70
2021/01/31 06:49:49;;;;;;;26.90;12.97;;;;;;;0.99;100.00;94689.66;5021095;28;20205;-71
2021/01/31 06:52:38;;;;;;;28.53;13.20;;;;;;;1.05;100.00;94687.25;5019439;28;20217;-69
2021/01/31 06:55:31;;;;;;;28.87;13.60;;;;;;;1.01;100.00;94687.72;5019438;28;20236;-69
2021/01/31 06:58:24;;;;;;;30.30;14.37;;;;;;;1.02;100.00;94689.31;4967596;28;20237;-70
2021/01/31 07:01:20;;;;;;;27.17;13.20;;;;;;;0.90;100.00;94698.38;5014457;28;20692;-70
2021/01/31 07:04:34;;;;;;;29.97;13.97;;;;;;;0.81;100.00;94709.69;5020063;28;20202;-69
2021/01/31 07:07:24;;;;;;;29.43;13.03;;;;;;;0.86;100.00;94713.41;5018793;28;20618;-70
2021/01/31 07:10:07;;;;;;;31.93;14.70;;;;;;;0.97;100.00;94726.13;5019888;28;20222;-70
2021/01/31 07:12:47;;;;;;;32.37;14.57;;;;;;;0.94;100.00;94726.44;5019023;28;20252;-69
2021/01/31 07:15:15;;;;;;;31.50;15.33;;;;;;;0.99;100.00;94728.53;5018995;28;20209;-70
2021/01/31 07:17:44;;;;;;;32.60;15.03;;;;;;;0.93;100.00;94734.34;5019773;28;20224;-70
2021/01/31 07:20:16;;;;;;;30.47;14.53;;;;;;;0.95;100.00;94732.41;5019568;28;20201;-70
2021/01/31 07:22:46;;;;;;;34.13;15.63;;;;;;;0.85;100.00;94727.38;5019387;28;20276;-70
2021/01/31 07:25:18;;;;;;;34.23;15.83;;;;;;;0.91;100.00;94733.72;5018475;28;20255;-70
2021/01/31 07:27:51;;;;;;;37.10;16.13;;;;;;;1.04;100.00;94737.47;5019751;28;20229;-70
2021/01/31 07:30:23;;;;;;;34.97;16.43;;;;;;;1.10;100.00;94736.06;5018809;28;20227;-69
2021/01/31 07:32:57;;;;;;;34.60;15.67;;;;;;;1.04;100.00;94740.06;5019610;28;20209;-70
2021/01/31 07:35:28;;;;;;;34.40;15.90;;;;;;;1.08;100.00;94751.75;5018301;28;20212;-70
2021/01/31 07:38:06;;;;;;;34.53;15.50;;;;;;;1.05;100.00;94753.88;5019155;28;20235;-70
2021/01/31 07:40:33;;;;;;;34.03;15.20;;;;;;;1.07;100.00;94754.50;5019235;28;20964;-70
2021/01/31 07:43:00;;;;;;;32.27;14.73;;;;;;;1.13;100.00;94759.06;5019143;28;20206;-70
2021/01/31 07:45:27;;;;;;;30.33;14.63;;;;;;;1.19;100.00;94763.66;5018661;28;20217;-70
2021/01/31 07:48:26;;;;;;;35.97;16.13;;;;;;;1.13;100.00;94772.03;5018223;28;20793;-71
2021/01/31 07:50:52;;;;;;;32.20;14.60;;;;;;;1.11;100.00;94768.78;5018550;28;20225;-70
2021/01/31 07:53:27;;;;;;;38.63;15.17;;;;;;;1.04;100.00;94768.59;5018876;28;20204;-70
2021/01/31 07:55:53;;;;;;;31.27;14.77;;;;;;;1.20;100.00;94766.88;5017785;28;20208;-71
2021/01/31 07:58:38;;;;;;;35.10;15.33;;;;;;;1.11;100.00;94767.03;5018744;28;20308;-70
2021/01/31 08:01:04;;;;;;;33.33;14.90;;;;;;;1.28;100.00;94760.91;5019040;28;20291;-71
2021/01/31 08:03:34;;;;;;;30.77;14.90;;;;;;;1.30;100.00;94769.38;5018320;28;20212;-69
2021/01/31 08:06:04;;;;;;;31.23;15.20;;;;;;;1.28;100.00;94772.09;5017981;28;20608;-70
2021/01/31 08:08:47;;;;;;;32.80;14.87;;;;;;;1.27;100.00;94777.44;5018189;28;20241;-71
2021/01/31 08:11:53;;;;;;;32.07;14.73;;;;;;;1.19;100.00;94781.81;5018421;28;20223;-70
2021/01/31 08:14:57;;;;;;;34.10;14.33;;;;;;;1.18;100.00;94787.94;5018211;28;20209;-70
2021/01/31 08:17:47;;;;;;;33.83;15.73;;;;;;;1.21;100.00;94778.88;5017704;28;21134;-70
2021/01/31 08:20:42;;;;;;;33.03;15.53;;;;;;;1.26;100.00;94781.84;5017731;28;20198;-71
2021/01/31 08:23:51;;;;;;;33.60;15.23;;;;;;;1.31;100.00;94787.38;5018748;28;20213;-71
2021/01/31 08:26:41;;;;;;;31.97;15.37;;;;;;;1.26;100.00;94778.41;5017281;28;20605;-70
2021/01/31 08:29:18;;;;;;;33.07;14.00;;;;;;;1.31;100.00;94779.59;5016911;28;20221;-70
2021/01/31 08:32:17;;;;;;;34.53;15.97;;;;;;;1.36;100.00;94779.09;5017585;28;20225;-69
2021/01/31 08:35:18;;;;;;;37.17;17.20;;;;;;;1.43;100.00;94782.69;5017600;28;20678;-71
2021/01/31 08:37:45;;;;;;;40.07;17.13;;;;;;;1.50;100.00;94787.13;5017908;28;20316;-71
2021/01/31 08:40:20;;;;;;;43.47;19.27;;;;;;;1.54;100.00;94797.97;5017737;28;20202;-71
2021/01/31 08:42:54;;;;;;;52.67;23.80;;;;;;;1.53;100.00;94781.59;5018326;28;20205;-71
2021/01/31 08:45:20;;;;;;;36.73;17.20;;;;;;;1.48;100.00;94796.81;5016665;28;20259;-70
2021/01/31 08:47:46;;;;;;;38.87;17.27;;;;;;;1.53;100.00;94796.38;5017994;28;20229;-70
2021/01/31 08:50:17;;;;;;;40.43;18.10;;;;;;;1.45;100.00;94789.38;5017509;28;20595;-71
2021/01/31 08:52:45;;;;;;;32.80;16.03;;;;;;;1.30;100.00;94785.72;5017829;28;20204;-71
2021/01/31 08:55:11;;;;;;;37.03;17.50;;;;;;;1.30;100.00;94785.72;5016823;28;20212;-70
2021/01/31 08:57:37;;;;;;;36.60;18.47;;;;;;;1.27;100.00;94786.06;5017586;28;20316;-70
2021/01/31 09:00:13;;;;;;;35.73;16.30;;;;;;;1.32;100.00;94807.16;5017519;28;20288;-70
2021/01/31 09:02:43;;;;;;;36.63;16.73;;;;;;;1.30;100.00;94801.31;5017319;28;20208;-70
2021/01/31 09:05:13;;;;;;;37.77;16.67;;;;;;;1.28;100.00;94797.22;5016519;28;20217;-71
2021/01/31 09:07:42;;;;;;;34.30;16.50;;;;;;;1.35;100.00;94790.44;5017443;28;20225;-71
2021/01/31 09:10:15;;;;;;;39.90;16.60;;;;;;;1.18;100.00;94793.94;5016929;28;20236;-71
2021/01/31 09:12:41;;;;;;;35.90;16.83;;;;;;;1.30;100.00;94790.91;5016992;28;20286;-70
2021/01/31 09:15:13;;;;;;;36.50;16.77;;;;;;;1.30;100.00;94795.31;5016272;28;20598;-71
2021/01/31 09:17:39;;;;;;;37.60;17.10;;;;;;;1.28;100.00;94792.84;5016507;28;20317;-71
2021/01/31 09:20:11;;;;;;;37.87;17.37;;;;;;;1.21;100.00;94798.84;5016524;28;20538;-71
2021/01/31 09:22:40;;;;;;;42.90;18.37;;;;;;;1.18;100.00;94812.09;5017285;28;20753;-71
2021/01/31 09:25:08;;;;;;;38.57;17.80;;;;;;;1.29;100.00;94807.44;5015557;28;20210;-71
2021/01/31 09:27:42;;;;;;;37.67;17.57;;;;;;;1.44;100.00;94805.06;5015900;28;20224;-71
2021/01/31 09:30:13;;;;;;;37.77;18.50;;;;;;;1.24;100.00;94801.91;5016401;28;20229;-70
2021/01/31 09:32:41;;;;;;;40.53;17.77;;;;;;;1.38;100.00;94803.13;5015932;28;20211;-70
2021/01/31 09:35:10;;;;;;;41.43;18.70;;;;;;;1.43;100.00;94811.25;5015487;28;20208;-71
2021/01/31 09:37:36;;;;;;;43.97;19.03;;;;;;;1.41;100.00;94818.34;5017165;28;20239;-71
2021/01/31 09:40:08;;;;;;;39.60;17.93;;;;;;;1.30;100.00;94822.06;5015908;28;20205;-70
2021/01/31 09:42:37;;;;;;;41.73;17.33;;;;;;;1.61;100.00;94824.94;5015072;28;20206;-71
2021/01/31 09:45:06;;;;;;;39.77;18.27;;;;;;;1.64;100.00;94827.19;5015218;28;20259;-70
2021/01/31 09:47:33;;;;;;;42.60;18.83;;;;;;;1.55;100.00;94839.31;5016294;28;20627;-71
2021/01/31 09:50:11;;;;;;;42.37;18.63;;;;;;;1.65;100.00;94836.63;5015390;28;20511;-71
2021/01/31 09:52:41;;;;;;;36.00;15.83;;;;;;;1.56;100.00;94830.59;5016252;28;20449;-70
2021/01/31 09:55:27;;;;;;;34.70;14.90;;;;;;;1.43;100.00;94830.22;5015723;28;21032;-71
2021/01/31 09:57:53;;;;;;;29.40;13.40;;;;;;;1.22;100.00;94839.34;5016307;28;20227;-71
2021/01/31 10:00:26;;;;;;;32.63;14.27;;;;;;;1.16;100.00;94831.38;5016077;28;20201;-71
2021/01/31 10:03:01;;;;;;;36.13;16.03;;;;;;;1.31;100.00;94828.03;5016004;28;20688;-70
2021/01/31 10:05:27;;;;;;;36.10;15.67;;;;;;;1.36;100.00;94824.03;5015002;28;20203;-71
2021/01/31 10:08:02;;;;;;;37.03;16.83;;;;;;;1.39;100.00;94831.50;5016303;28;20224;-71
2021/01/31 10:10:35;;;;;;;40.07;16.77;;;;;;;1.51;100.00;94827.63;5016163;28;20237;-71
2021/01/31 10:13:19;;;;;;;41.40;17.80;;;;;;;1.46;100.00;94831.69;5015589;28;20211;-70
2021/01/31 10:15:52;;;;;;;48.77;21.23;;;;;;;1.52;100.00;94842.25;5015181;28;20211;-70
2021/01/31 10:18:31;;;;;;;35.67;16.17;;;;;;;1.50;100.00;94839.00;5015941;28;20716;-70
2021/01/31 10:21:13;;;;;;;42.83;18.20;;;;;;;1.53;100.00;94836.09;5015865;28;20567;-71
2021/01/31 10:23:39;;;;;;;38.73;18.03;;;;;;;1.47;100.00;94844.50;5013930;28;20210;-71
2021/01/31 10:26:07;;;;;;;36.33;16.33;;;;;;;1.59;100.00;94839.84;5014937;28;20672;-71
2021/01/31 10:28:35;;;;;;;40.97;17.70;;;;;;;1.61;100.00;94838.72;5015529;28;20341;-71
2021/01/31 10:31:02;;;;;;;35.50;16.33;;;;;;;1.33;100.00;94847.69;5015474;28;20229;-71
2021/01/31 10:33:43;;;;;;;39.63;17.67;;;;;;;1.38;100.00;94849.81;5015666;28;20216;-71
2021/01/31 10:36:27;;;;;;;35.23;16.30;;;;;;;1.40;100.00;94846.09;5015042;28;20204;-71
2021/01/31 10:38:55;;;;;;;35.70;16.03;;;;;;;1.28;100.00;94846.53;5015630;28;20242;-70
2021/01/31 10:41:21;;;;;;;41.90;18.37;;;;;;;1.31;100.00;94849.63;5016177;28;20210;-71
2021/01/31 10:43:59;;;;;;;40.40;17.93;;;;;;;1.43;100.00;94853.56;5015583;28;20259;-71
2021/01/31 10:46:25;;;;;;;42.40;18.40;;;;;;;1.57;100.00;94837.41;5014779;28;20205;-71
2021/01/31 10:48:52;;;;;;;41.10;19.23;;;;;;;1.58;100.00;94841.63;5016140;28;20704;-70
2021/01/31 10:51:18;;;;;;;44.13;17.90;;;;;;;1.39;100.00;94847.06;5015589;28;20229;-71
2021/01/31 10:53:44;;;;;;;44.70;19.33;;;;;;;1.35;100.00;94845.75;5017630;28;20418;-70
2021/01/31 10:56:10;;;;;;;37.47;17.07;;;;;;;1.43;100.00;94845.78;5018861;28;20299;-71
2021/01/31 10:58:37;;;;;;;41.63;17.37;;;;;;;1.47;100.00;94848.88;5019360;28;20587;-71
2021/01/31 11:01:03;;;;;;;40.63;18.07;;;;;;;1.63;100.00;94835.94;5018684;28;20339;-71
2021/01/31 11:03:29;;;;;;;41.57;17.70;;;;;;;1.43;100.00;94837.19;5019996;28;20210;-70
2021/01/31 11:05:56;;;;;;;40.13;17.73;;;;;;;1.41;100.00;94833.94;5018217;28;20305;-70
2021/01/31 11:08:24;;;;;;;40.53;17.17;;;;;;;1.64;100.00;94835.00;5018598;28;20228;-70
2021/01/31 11:10:50;;;;;;;41.07;18.03;;;;;;;1.68;100.00;94833.69;5018987;28;20229;-70
2021/01/31 11:13:16;;;;;;;40.53;17.80;;;;;;;1.66;100.00;94823.47;5018938;28;20267;-71
2021/01/31 11:15:42;;;;;;;46.20;18.30;;;;;;;1.53;100.00;94823.13;5017938;28;20602;-71
2021/01/31 11:18:08;;;;;;;41.10;16.93;;;;;;;1.54;100.00;94829.94;5018910;28;20314;-70
2021/01/31 11:20:34;;;;;;;38.53;17.13;;;;;;;1.41;100.00;94824.38;5018435;28;20691;-70
2021/01/31 11:23:01;;;;;;;42.83;17.47;;;;;;;1.66;100.00;94825.28;5018643;28;20538;-71
2021/01/31 11:25:27;;;;;;;44.37;17.43;;;;;;;1.66;100.00;94815.69;5017725;28;20213;-71
2021/01/31 11:27:53;;;;;;;41.13;16.77;;;;;;;1.84;100.00;94806.00;5018413;28;20224;-71
2021/01/31 11:30:19;;;;;;;34.17;14.97;;;;;;;1.79;100.00;94808.25;5018345;28;20209;-71
2021/01/31 11:32:45;;;;;;;37.37;16.57;;;;;;;1.99;100.00;94797.41;5018155;28;20213;-71
2021/01/31 11:35:11;;;;;;;35.80;15.47;;;;;;;1.88;100.00;94807.31;5017673;28;20547;-71
2021/01/31 11:37:37;;;;;;;31.90;15.07;;;;;;;1.82;100.00;94789.78;5018711;28;20528;-71
2021/01/31 11:40:06;;;;;;;38.23;16.37;;;;;;;1.92;100.00;94788.66;5018552;28;20309;-70